Beaver Islander — WT5906 — position and weather

sailwx.info

Track history (hours):
 
Tides and Currents Weather Stations Pressure Air Temp Water Temp Dewpoint Dewpoint Depression Visibility Wind Speed Wind Dir Waves Ship Positions

Beaver Islander

Owner: BEAVER ISLAND BOAT CO, CHARLEVOIX, MI. More information available from US FCC via Universal Licensing System and Coast Guard Vessel Documentation Center.

Last reported at 2015-May-20 23:08 UTC. Time now 2015-May-28 22:13 UTC.
Position N 45°45' W 085°31'.

Length 28 m; draft 3 m.

Type: Passenger vessel. MMSI: 366936060.

Date/timePositionNaut miles runAvg speedWind from/ knotsBaromVisibWave heightAir tempDewpointWater temp
2015-May-20 23:08N 45°45' W 085°31'2 2.7
2015-May-20 22:34N 45°44' W 085°29'1313.0
2015-May-20 21:34N 45°32' W 085°23'1313.1
2015-May-20 20:33N 45°19' W 085°16'1 0.6
2015-May-20 19:33N 45°19' W 085°15'0 0.0
2015-May-20 18:34N 45°19' W 085°15'2 1.6
2015-May-20 17:34N 45°19' W 085°13'1 0.6
2015-May-20 16:34N 45°19' W 085°14'1 1.0
2015-May-20 15:33N 45°19' W 085°15'1 1.3
2015-May-20 14:34N 45°19' W 085°14'0 0.4
2015-May-20 13:30N 45°19' W 085°14'1 0.9
2015-May-20 12:23N 45°19' W 085°15'0 0.0
2015-May-19 18:07N 45°19' W 085°15'2 3.5
2015-May-19 17:32N 45°18' W 085°13'1 0.9
2015-May-19 16:31N 45°19' W 085°14'1 1.2
2015-May-19 15:33N 45°19' W 085°15'2 2.1
2015-May-19 14:33N 45°18' W 085°13'1 0.6
2015-May-19 13:30N 45°18' W 085°13'2 1.5
2015-May-19 12:29N 45°19' W 085°15'0 0.0
2015-May-18 15:33N 45°19' W 085°15'1110.6
2015-May-18 14:33N 45°29' W 085°21'1312.7
2015-May-18 13:33N 45°41' W 085°27'  
Track history (hours):
 
Tides and Currents Weather Stations Pressure Air Temp Water Temp Dewpoint Dewpoint Depression Visibility Wind Speed Wind Dir Waves Ship Positions

Beaver Islander

Owner: BEAVER ISLAND BOAT CO, CHARLEVOIX, MI. More information available from US FCC via Universal Licensing System and Coast Guard Vessel Documentation Center.

Last reported at 2015-May-20 23:08 UTC. Time now 2015-May-28 22:13 UTC.
Position N 45°45' W 085°31'.

Length 28 m; draft 3 m.

Type: Passenger vessel. MMSI: 366936060.

Date/timePositionNaut miles runAvg speedWind from/ knotsBaromVisibWave heightAir tempDewpointWater temp
2015-May-20 23:08N 45°45' W 085°31'2 2.7
2015-May-20 22:34N 45°44' W 085°29'1313.0
2015-May-20 21:34N 45°32' W 085°23'1313.1
2015-May-20 20:33N 45°19' W 085°16'1 0.6
2015-May-20 19:33N 45°19' W 085°15'0 0.0
2015-May-20 18:34N 45°19' W 085°15'2 1.6
2015-May-20 17:34N 45°19' W 085°13'1 0.6
2015-May-20 16:34N 45°19' W 085°14'1 1.0
2015-May-20 15:33N 45°19' W 085°15'1 1.3
2015-May-20 14:34N 45°19' W 085°14'0 0.4
2015-May-20 13:30N 45°19' W 085°14'1 0.9
2015-May-20 12:23N 45°19' W 085°15'0 0.0
2015-May-19 18:07N 45°19' W 085°15'2 3.5
2015-May-19 17:32N 45°18' W 085°13'1 0.9
2015-May-19 16:31N 45°19' W 085°14'1 1.2
2015-May-19 15:33N 45°19' W 085°15'2 2.1
2015-May-19 14:33N 45°18' W 085°13'1 0.6
2015-May-19 13:30N 45°18' W 085°13'2 1.5
2015-May-19 12:29N 45°19' W 085°15'0 0.0
2015-May-18 15:33N 45°19' W 085°15'1110.6
2015-May-18 14:33N 45°29' W 085°21'1312.7
2015-May-18 13:33N 45°41' W 085°27'  

Dump ship's entire track history